createdAt,value
2022-11-17T00:03:32.551Z,3
2022-11-17T00:06:37.488Z,3
2022-11-17T00:08:28.640Z,3
2022-11-17T00:13:34.151Z,3
2022-11-17T00:14:33.780Z,3
2022-11-17T00:15:33.792Z,3
2022-11-17T00:17:33.791Z,3
2022-11-17T00:18:33.822Z,3
2022-11-17T00:23:32.630Z,3
2022-11-17T00:27:53.683Z,3
2022-11-17T00:28:34.660Z,3
2022-11-17T00:29:37.337Z,3
2022-11-17T00:30:33.827Z,3
2022-11-17T00:31:33.786Z,2
2022-11-17T00:32:33.775Z,3
2022-11-17T00:33:34.966Z,3
2022-11-17T00:34:33.785Z,3
2022-11-17T00:35:33.770Z,3
2022-11-17T00:38:33.781Z,2
2022-11-17T00:39:33.779Z,3
2022-11-17T00:40:33.797Z,3
2022-11-17T00:41:33.814Z,2
2022-11-17T00:42:33.803Z,2
2022-11-17T00:45:33.811Z,3
2022-11-17T00:52:30.214Z,2
2022-11-17T00:53:25.802Z,2
2022-11-17T00:55:33.849Z,2
2022-11-17T00:56:33.776Z,2
2022-11-17T00:57:33.788Z,2
2022-11-17T00:58:33.804Z,2
2022-11-17T00:59:33.782Z,2
2022-11-17T01:00:33.773Z,2
2022-11-17T01:01:33.915Z,3
2022-11-17T01:03:34.127Z,2
2022-11-17T01:04:33.905Z,2
2022-11-17T01:09:13.724Z,2
2022-11-17T01:11:33.785Z,2
2022-11-17T01:14:41.084Z,2
2022-11-17T01:16:32.240Z,2
2022-11-17T01:17:27.817Z,2
2022-11-17T01:23:40.376Z,2
2022-11-17T01:24:54.455Z,2
2022-11-17T01:25:31.514Z,2
2022-11-17T01:26:45.611Z,2
2022-11-17T01:28:36.762Z,2
2022-11-17T01:31:42.009Z,2
2022-11-17T01:32:56.119Z,2
2022-11-17T01:36:38.412Z,2
2022-11-17T01:39:43.655Z,3
2022-11-17T01:46:16.797Z,2
2022-11-17T01:50:54.658Z,2
2022-11-17T01:51:33.795Z,3
2022-11-17T01:52:33.802Z,2
2022-11-17T01:53:34.080Z,3
2022-11-17T01:54:33.794Z,2
2022-11-17T01:55:33.796Z,2
2022-11-17T01:56:33.786Z,2
2022-11-17T01:57:33.801Z,2
2022-11-17T01:58:33.793Z,2
2022-11-17T01:59:33.792Z,2
2022-11-17T02:00:33.803Z,2
2022-11-17T02:01:33.894Z,2
2022-11-17T02:02:33.793Z,2
2022-11-17T02:03:34.197Z,2
2022-11-17T02:04:43.804Z,2
2022-11-17T02:05:33.812Z,2
2022-11-17T02:06:33.889Z,2
2022-11-17T02:07:33.863Z,2
2022-11-17T02:08:33.803Z,2
2022-11-17T02:10:33.785Z,3
2022-11-17T02:14:34.620Z,2
2022-11-17T02:15:30.208Z,3
2022-11-17T02:16:25.797Z,2
2022-11-17T02:17:41.921Z,2
2022-11-17T02:18:33.799Z,2
2022-11-17T02:19:33.795Z,2
2022-11-17T02:20:33.806Z,2
2022-11-17T02:21:33.798Z,2
2022-11-17T02:22:33.818Z,2
2022-11-17T02:23:34.242Z,2
2022-11-17T02:24:33.811Z,2
2022-11-17T02:25:33.812Z,2
2022-11-17T02:26:33.816Z,2
2022-11-17T02:32:44.295Z,2
2022-11-17T02:34:37.489Z,2
2022-11-17T02:35:33.933Z,2
2022-11-17T02:36:33.800Z,2
2022-11-17T02:38:33.780Z,2
2022-11-17T02:39:33.807Z,2
2022-11-17T02:40:33.807Z,2
2022-11-17T02:41:33.815Z,2
2022-11-17T02:42:33.785Z,2
2022-11-17T02:43:34.247Z,2
2022-11-17T02:44:33.793Z,2
2022-11-17T02:45:33.807Z,2
2022-11-17T02:46:33.804Z,2
2022-11-17T02:47:33.814Z,2
2022-11-17T02:48:33.802Z,2
2022-11-17T02:49:33.776Z,2
2022-11-17T02:50:33.793Z,2
2022-11-17T02:51:33.791Z,2
2022-11-17T02:52:33.783Z,2
2022-11-17T02:53:34.454Z,2
2022-11-17T02:54:33.798Z,2
2022-11-17T02:55:33.795Z,2
2022-11-17T02:56:33.794Z,2
2022-11-17T02:57:33.789Z,2
2022-11-17T02:58:33.820Z,2
2022-11-17T02:59:33.814Z,2
2022-11-17T03:00:33.817Z,2
2022-11-17T03:01:33.927Z,2
2022-11-17T03:02:33.803Z,2
2022-11-17T03:03:34.134Z,2
2022-11-17T03:05:33.795Z,2
2022-11-17T03:06:33.800Z,2
2022-11-17T03:07:33.861Z,1
2022-11-17T03:08:33.794Z,2
2022-11-17T03:09:33.787Z,1
2022-11-17T03:10:33.823Z,1
2022-11-17T03:11:33.794Z,1
2022-11-17T03:12:33.788Z,2
2022-11-17T03:13:34.205Z,2
2022-11-17T03:15:33.803Z,1
2022-11-17T03:18:33.794Z,2
2022-11-17T03:23:30.202Z,2
2022-11-17T03:24:25.795Z,2
2022-11-17T03:25:41.941Z,2
2022-11-17T03:26:33.794Z,2
2022-11-17T03:27:33.809Z,2
2022-11-17T03:28:33.793Z,1
2022-11-17T03:29:33.783Z,2
2022-11-17T03:30:37.424Z,1
2022-11-17T03:31:33.786Z,1
2022-11-17T03:32:33.787Z,1
2022-11-17T03:33:34.256Z,1
2022-11-17T03:34:33.788Z,2
2022-11-17T03:35:33.793Z,1
2022-11-17T03:36:33.794Z,1
2022-11-17T03:37:33.794Z,1
2022-11-17T03:38:33.797Z,1
2022-11-17T03:39:33.942Z,1
2022-11-17T03:40:33.793Z,2
2022-11-17T03:41:33.798Z,1
2022-11-17T03:42:33.795Z,2
2022-11-17T03:44:33.788Z,1
2022-11-17T03:45:33.800Z,1
2022-11-17T03:46:33.795Z,1
2022-11-17T03:47:33.807Z,1
2022-11-17T03:48:33.793Z,1
2022-11-17T03:49:33.779Z,1
2022-11-17T03:50:33.805Z,2
2022-11-17T03:51:33.823Z,1
2022-11-17T03:52:33.798Z,1
2022-11-17T03:53:34.110Z,1
2022-11-17T03:54:33.790Z,2
2022-11-17T03:55:33.810Z,2
2022-11-17T03:57:33.800Z,2
2022-11-17T03:58:33.790Z,1
2022-11-17T03:59:33.783Z,2
2022-11-17T04:00:33.775Z,1
2022-11-17T04:01:33.856Z,1
2022-11-17T04:02:33.800Z,1
2022-11-17T04:03:34.260Z,2
2022-11-17T04:04:33.793Z,1
2022-11-17T04:05:33.801Z,2
2022-11-17T04:06:33.787Z,1
2022-11-17T04:07:33.849Z,1
2022-11-17T04:08:33.791Z,2
2022-11-17T04:09:33.799Z,1
2022-11-17T04:10:33.826Z,1
2022-11-17T04:11:33.822Z,1
2022-11-17T04:12:33.912Z,2
2022-11-17T04:13:34.144Z,2
2022-11-17T04:15:33.798Z,2
2022-11-17T04:16:33.802Z,1
2022-11-17T04:17:33.795Z,1
2022-11-17T04:18:33.811Z,2
2022-11-17T04:19:33.797Z,2
2022-11-17T04:20:33.791Z,2
2022-11-17T04:21:33.794Z,2
2022-11-17T04:22:33.803Z,2
2022-11-17T04:23:34.198Z,2
2022-11-17T04:24:33.811Z,2
2022-11-17T04:25:33.800Z,2
2022-11-17T04:26:33.805Z,2
2022-11-17T04:28:33.822Z,2
2022-11-17T04:29:33.807Z,2
2022-11-17T04:30:33.796Z,1
2022-11-17T04:31:33.802Z,1
2022-11-17T04:32:33.794Z,1
2022-11-17T04:33:34.176Z,1
2022-11-17T04:34:33.799Z,1
2022-11-17T04:35:33.805Z,1
2022-11-17T04:36:33.841Z,1
2022-11-17T04:37:33.794Z,2
2022-11-17T04:38:33.799Z,2
2022-11-17T04:39:33.802Z,2
2022-11-17T04:40:33.811Z,2
2022-11-17T04:41:33.921Z,2
2022-11-17T04:42:33.804Z,2
2022-11-17T04:43:34.304Z,1
2022-11-17T04:44:33.795Z,1
2022-11-17T04:45:33.791Z,1
2022-11-17T04:46:33.808Z,2
2022-11-17T04:47:33.802Z,2
2022-11-17T04:48:33.800Z,2
2022-11-17T04:49:33.790Z,2
2022-11-17T04:50:33.795Z,2
2022-11-17T04:51:33.806Z,2
2022-11-17T04:52:33.803Z,2
2022-11-17T04:53:34.308Z,4
2022-11-17T04:54:33.817Z,2
2022-11-17T04:55:33.802Z,2
2022-11-17T04:56:33.809Z,1
2022-11-17T04:57:33.810Z,2
2022-11-17T04:58:33.799Z,2
2022-11-17T04:59:33.783Z,2
2022-11-17T05:01:33.827Z,2
2022-11-17T05:02:33.995Z,2
2022-11-17T05:03:34.112Z,2
2022-11-17T05:04:33.803Z,2
2022-11-17T05:05:33.805Z,2
2022-11-17T05:06:33.798Z,2
2022-11-17T05:07:33.900Z,2
2022-11-17T05:08:33.797Z,1
2022-11-17T05:09:33.805Z,2
2022-11-17T05:10:33.927Z,1
2022-11-17T05:11:33.807Z,1
2022-11-17T05:12:33.939Z,2
2022-11-17T05:13:34.177Z,2
2022-11-17T05:15:33.829Z,1
2022-11-17T05:16:33.811Z,1
2022-11-17T05:17:33.807Z,2
2022-11-17T05:18:33.813Z,2
2022-11-17T05:19:33.817Z,2
2022-11-17T05:20:33.874Z,2
2022-11-17T05:21:33.802Z,1
2022-11-17T05:22:33.802Z,1
2022-11-17T05:23:34.105Z,2
2022-11-17T05:24:33.807Z,2
2022-11-17T05:25:33.808Z,2
2022-11-17T05:26:33.805Z,2
2022-11-17T05:27:33.808Z,1
2022-11-17T05:28:33.813Z,2
2022-11-17T05:29:33.810Z,2
2022-11-17T05:30:33.799Z,2
2022-11-17T05:31:33.810Z,2
2022-11-17T05:33:37.717Z,2
2022-11-17T05:34:33.794Z,2
2022-11-17T05:35:33.792Z,2
2022-11-17T05:36:33.807Z,1
2022-11-17T05:37:33.802Z,2
2022-11-17T05:38:33.812Z,2
2022-11-17T05:39:33.811Z,2
2022-11-17T05:40:33.802Z,2
2022-11-17T05:41:33.812Z,2
2022-11-17T05:42:33.801Z,2
2022-11-17T05:43:34.247Z,2
2022-11-17T05:44:33.806Z,2
2022-11-17T05:45:43.819Z,2
2022-11-17T05:46:33.802Z,2
2022-11-17T05:47:33.823Z,2
2022-11-17T05:48:33.817Z,2
2022-11-17T05:49:33.796Z,4
2022-11-17T05:50:33.808Z,2
2022-11-17T05:51:33.821Z,3
2022-11-17T05:52:33.927Z,2
2022-11-17T05:53:34.224Z,2
2022-11-17T05:54:33.801Z,2
2022-11-17T05:55:33.815Z,2
2022-11-17T05:56:33.825Z,2
2022-11-17T05:57:33.818Z,2
2022-11-17T05:58:33.824Z,2
2022-11-17T05:59:33.828Z,2
2022-11-17T06:03:16.157Z,2
2022-11-17T06:04:30.326Z,2
2022-11-17T06:05:44.323Z,2
2022-11-17T06:09:33.812Z,2
2022-11-17T06:10:33.819Z,2
2022-11-17T06:11:33.824Z,2
2022-11-17T06:12:33.842Z,2
2022-11-17T06:13:34.293Z,2
2022-11-17T06:14:33.935Z,2
2022-11-17T06:15:33.808Z,2
2022-11-17T06:16:33.832Z,2
2022-11-17T06:17:33.811Z,2
2022-11-17T06:18:33.916Z,2
2022-11-17T06:19:33.843Z,2
2022-11-17T06:20:33.827Z,2
2022-11-17T06:22:04.379Z,2
2022-11-17T06:22:33.820Z,2
2022-11-17T06:24:33.816Z,2
2022-11-17T06:25:33.819Z,2
2022-11-17T06:26:33.883Z,2
2022-11-17T06:27:33.809Z,2
2022-11-17T06:28:34.676Z,2
2022-11-17T06:29:33.826Z,2
2022-11-17T06:30:33.825Z,2
2022-11-17T06:31:33.820Z,3
2022-11-17T06:32:33.820Z,2
2022-11-17T06:33:34.164Z,2
2022-11-17T06:34:33.813Z,2
2022-11-17T06:35:33.821Z,2
2022-11-17T06:36:33.825Z,2
2022-11-17T06:38:33.829Z,2
2022-11-17T06:40:33.826Z,2
2022-11-17T06:41:33.828Z,2
2022-11-17T06:42:33.821Z,2
2022-11-17T06:43:34.321Z,2
2022-11-17T06:44:33.840Z,2
2022-11-17T06:45:33.870Z,2
2022-11-17T06:46:33.857Z,2
2022-11-17T06:47:33.820Z,2
2022-11-17T06:48:34.225Z,2
2022-11-17T06:49:33.818Z,2
2022-11-17T06:50:33.831Z,2
2022-11-17T06:51:33.832Z,2
2022-11-17T06:52:33.805Z,2
2022-11-17T06:53:34.153Z,2
2022-11-17T06:54:33.928Z,3
2022-11-17T06:56:33.853Z,2
2022-11-17T06:57:33.857Z,2
2022-11-17T06:59:33.849Z,3
2022-11-17T07:00:33.919Z,2
2022-11-17T07:01:33.841Z,3
2022-11-17T07:03:34.162Z,2
2022-11-17T07:04:33.953Z,2
2022-11-17T07:09:30.237Z,2
2022-11-17T07:10:49.159Z,2
2022-11-17T07:12:37.554Z,3
2022-11-17T07:13:33.837Z,3
2022-11-17T07:14:33.945Z,2
2022-11-17T07:15:33.837Z,2
2022-11-17T07:16:33.966Z,3
2022-11-17T07:17:33.982Z,2
2022-11-17T07:18:34.246Z,2
2022-11-17T07:19:33.846Z,2
2022-11-17T07:20:33.845Z,2
2022-11-17T07:21:33.842Z,2
2022-11-17T07:22:33.842Z,2
2022-11-17T07:23:33.831Z,3
2022-11-17T07:24:33.834Z,3
2022-11-17T07:25:33.833Z,3
2022-11-17T07:26:33.849Z,3
2022-11-17T07:27:33.829Z,3
2022-11-17T07:28:34.148Z,3
2022-11-17T07:29:33.835Z,3
2022-11-17T07:30:33.835Z,3
2022-11-17T07:31:33.838Z,3
2022-11-17T07:32:33.836Z,3
2022-11-17T07:33:33.848Z,4
2022-11-17T07:34:33.843Z,4
2022-11-17T07:35:33.846Z,4
2022-11-17T07:37:33.850Z,5
2022-11-17T07:38:34.354Z,4
2022-11-17T07:43:30.246Z,4
2022-11-17T07:44:44.342Z,4
2022-11-17T07:47:14.623Z,4
2022-11-17T07:48:34.266Z,4
2022-11-17T07:49:33.849Z,4
2022-11-17T07:50:33.854Z,4
2022-11-17T07:51:33.834Z,3
2022-11-17T07:52:37.317Z,3
2022-11-17T07:53:33.860Z,3
2022-11-17T07:54:33.843Z,3
2022-11-17T07:59:30.240Z,2
2022-11-17T08:00:44.448Z,1
2022-11-17T08:02:37.548Z,2
2022-11-17T08:03:33.897Z,1
2022-11-17T08:04:33.845Z,1
2022-11-17T08:05:37.088Z,1
2022-11-17T08:06:33.840Z,2
2022-11-17T08:07:33.951Z,2
2022-11-17T08:08:34.306Z,1
2022-11-17T08:09:33.842Z,1
2022-11-17T08:10:33.859Z,2
2022-11-17T08:11:34.293Z,2
2022-11-17T08:13:33.833Z,2
2022-11-17T08:14:33.846Z,1
2022-11-17T08:15:33.840Z,2
2022-11-17T08:17:33.955Z,2
2022-11-17T08:18:34.381Z,2
2022-11-17T08:19:33.827Z,1
2022-11-17T08:21:33.841Z,1
2022-11-17T08:27:27.895Z,1
2022-11-17T08:28:44.033Z,1
2022-11-17T08:29:33.840Z,1
2022-11-17T08:30:33.851Z,2
2022-11-17T08:32:33.848Z,1
2022-11-17T08:33:33.845Z,1
2022-11-17T08:34:33.826Z,1
2022-11-17T08:38:30.910Z,1
2022-11-17T08:39:45.073Z,1
2022-11-17T08:41:36.161Z,1
2022-11-17T08:42:15.264Z,1
2022-11-17T08:44:33.835Z,1
2022-11-17T08:45:33.864Z,1
2022-11-17T08:46:33.844Z,1
2022-11-17T08:47:33.846Z,1
2022-11-17T08:52:30.258Z,1
2022-11-17T08:53:44.350Z,1
2022-11-17T08:55:41.018Z,1
2022-11-17T08:57:33.929Z,1
2022-11-17T08:58:34.145Z,1
2022-11-17T08:59:33.816Z,1
2022-11-17T09:01:33.897Z,1
2022-11-17T09:02:33.817Z,1
2022-11-17T09:07:34.635Z,1
2022-11-17T09:08:46.703Z,1
2022-11-17T09:10:37.526Z,1
2022-11-17T09:11:33.835Z,1
2022-11-17T09:12:33.836Z,1
2022-11-17T09:13:33.847Z,1
2022-11-17T09:14:33.844Z,1
2022-11-17T09:15:33.841Z,1
2022-11-17T09:16:33.833Z,1
2022-11-17T09:17:33.849Z,1
2022-11-17T09:18:34.185Z,2
2022-11-17T09:19:33.973Z,1
2022-11-17T09:20:33.839Z,1
2022-11-17T09:21:33.835Z,1
2022-11-17T09:22:33.843Z,1
2022-11-17T09:23:34.250Z,1
2022-11-17T09:24:33.848Z,2
2022-11-17T09:25:33.839Z,2
2022-11-17T09:26:33.856Z,2
2022-11-17T09:27:33.855Z,2
2022-11-17T09:28:34.328Z,1
2022-11-17T09:29:33.863Z,2
2022-11-17T09:31:33.991Z,2
2022-11-17T09:32:33.850Z,2
2022-11-17T09:33:33.846Z,2
2022-11-17T09:35:33.851Z,1
2022-11-17T09:37:33.854Z,2
2022-11-17T09:42:30.253Z,2
2022-11-17T09:43:44.358Z,2
2022-11-17T09:45:37.539Z,2
2022-11-17T09:46:33.877Z,2
2022-11-17T09:47:33.845Z,2
2022-11-17T09:48:41.022Z,2
2022-11-17T09:49:33.848Z,2
2022-11-17T09:50:33.943Z,2
2022-11-17T09:51:33.896Z,3
2022-11-17T09:52:33.842Z,2
2022-11-17T09:53:34.170Z,2
2022-11-17T09:54:33.850Z,2
2022-11-17T09:55:34.607Z,2
2022-11-17T09:56:33.856Z,2
2022-11-17T09:57:33.852Z,2
2022-11-17T09:58:34.357Z,2
2022-11-17T09:59:33.849Z,2
2022-11-17T10:00:33.855Z,2
2022-11-17T10:01:33.844Z,2
2022-11-17T10:02:33.924Z,2
2022-11-17T10:03:36.272Z,2
2022-11-17T10:04:33.851Z,2
2022-11-17T10:05:33.852Z,2
2022-11-17T10:06:33.853Z,2
2022-11-17T10:07:33.963Z,2
2022-11-17T10:08:33.918Z,2
2022-11-17T10:09:33.842Z,2
2022-11-17T10:11:33.885Z,1
2022-11-17T10:12:33.851Z,2
2022-11-17T10:13:34.466Z,1
2022-11-17T10:14:33.846Z,2
2022-11-17T10:15:33.858Z,1
2022-11-17T10:19:16.156Z,1
2022-11-17T10:20:30.251Z,1
2022-11-17T10:21:25.841Z,1
2022-11-17T10:22:41.981Z,2
2022-11-17T10:23:34.109Z,1
2022-11-17T10:24:33.873Z,1
2022-11-17T10:25:33.861Z,1
2022-11-17T10:26:33.854Z,1
2022-11-17T10:28:33.856Z,1
2022-11-17T10:29:33.857Z,2
2022-11-17T10:30:33.855Z,1
2022-11-17T10:31:33.890Z,1
2022-11-17T10:33:34.245Z,1
2022-11-17T10:34:40.256Z,1
2022-11-17T10:35:33.888Z,1
2022-11-17T10:36:33.952Z,1
2022-11-17T10:37:33.860Z,1
2022-11-17T10:38:33.890Z,1
2022-11-17T10:40:33.861Z,1
2022-11-17T10:45:30.244Z,1
2022-11-17T10:46:25.862Z,1
2022-11-17T10:47:41.980Z,1
2022-11-17T10:48:34.024Z,1
2022-11-17T10:49:33.849Z,1
2022-11-17T10:50:33.856Z,1
2022-11-17T10:51:33.845Z,1
2022-11-17T10:52:33.845Z,1
2022-11-17T10:57:32.297Z,1
2022-11-17T10:59:41.994Z,1
2022-11-17T11:01:53.712Z,1
2022-11-17T11:02:33.852Z,1
2022-11-17T11:03:34.270Z,1
2022-11-17T11:05:33.866Z,1
2022-11-17T11:09:32.654Z,1
2022-11-17T11:11:23.798Z,1
2022-11-17T11:13:35.516Z,2
2022-11-17T11:14:33.863Z,1
2022-11-17T11:15:33.881Z,1
2022-11-17T11:16:33.868Z,1
2022-11-17T11:17:33.867Z,1
2022-11-17T11:18:33.852Z,1
2022-11-17T11:23:16.752Z,1
2022-11-17T11:25:25.870Z,1
2022-11-17T11:26:42.002Z,1
2022-11-17T11:27:33.863Z,1
2022-11-17T11:28:33.867Z,1
2022-11-17T11:29:33.852Z,1
2022-11-17T11:30:33.854Z,1
2022-11-17T11:31:33.858Z,2
2022-11-17T11:32:33.888Z,1
2022-11-17T11:33:33.861Z,2
2022-11-17T11:34:33.847Z,1
2022-11-17T11:35:33.868Z,2
2022-11-17T11:36:33.864Z,1
2022-11-17T11:37:33.859Z,2
2022-11-17T11:38:33.883Z,1
2022-11-17T11:39:33.857Z,1
2022-11-17T11:40:33.860Z,1
2022-11-17T11:41:33.859Z,1
2022-11-17T11:42:33.873Z,1
2022-11-17T11:43:33.851Z,1
2022-11-17T11:44:33.861Z,1
2022-11-17T11:45:33.871Z,1
2022-11-17T11:46:33.873Z,1
2022-11-17T11:50:40.444Z,1
2022-11-17T11:51:30.261Z,1
2022-11-17T11:52:44.379Z,1
2022-11-17T11:53:39.957Z,1
2022-11-17T11:54:56.094Z,1
2022-11-17T11:55:33.864Z,1
2022-11-17T11:56:33.865Z,1
2022-11-17T11:57:33.862Z,1
2022-11-17T11:58:33.869Z,1
2022-11-17T12:04:30.268Z,1
2022-11-17T12:05:25.874Z,1
2022-11-17T12:06:42.021Z,1
2022-11-17T12:08:33.888Z,1
2022-11-17T12:10:33.879Z,1
2022-11-17T12:11:33.867Z,1
2022-11-17T12:12:33.866Z,1
2022-11-17T12:14:33.934Z,1
2022-11-17T12:16:33.869Z,1
2022-11-17T12:17:33.883Z,1
2022-11-17T12:18:33.866Z,1
2022-11-17T12:24:25.866Z,2
2022-11-17T12:25:41.992Z,1
2022-11-17T12:26:34.130Z,1
2022-11-17T12:27:33.865Z,1
2022-11-17T12:29:33.870Z,1
2022-11-17T12:30:33.892Z,1
2022-11-17T12:31:33.893Z,1
2022-11-17T12:33:33.884Z,1
2022-11-17T12:38:30.270Z,1
2022-11-17T12:39:26.020Z,1
2022-11-17T12:40:41.995Z,1
2022-11-17T12:41:33.869Z,1
2022-11-17T12:42:33.936Z,1
2022-11-17T12:43:33.860Z,1
2022-11-17T12:44:33.880Z,1
2022-11-17T12:45:39.045Z,1
2022-11-17T12:46:33.853Z,1
2022-11-17T12:48:35.277Z,1
2022-11-17T12:49:33.868Z,2
2022-11-17T12:54:30.304Z,1
2022-11-17T12:55:44.370Z,1
2022-11-17T12:57:37.564Z,1
2022-11-17T12:58:33.888Z,1
2022-11-17T12:59:33.873Z,2
2022-11-17T13:00:33.876Z,1
2022-11-17T13:01:33.956Z,1
2022-11-17T13:02:33.893Z,1
2022-11-17T13:05:28.777Z,1
2022-11-17T13:08:17.598Z,1
2022-11-17T13:09:15.196Z,2
2022-11-17T13:10:33.882Z,6
2022-11-17T13:11:33.883Z,1
2022-11-17T13:12:33.872Z,2
2022-11-17T13:13:36.792Z,2
2022-11-17T13:14:33.895Z,1
2022-11-17T13:19:32.877Z,2
2022-11-17T13:20:27.923Z,2
2022-11-17T13:21:44.065Z,2
2022-11-17T13:22:39.016Z,1
2022-11-17T13:23:33.906Z,1
2022-11-17T13:24:33.880Z,2
2022-11-17T13:25:33.887Z,1
2022-11-17T13:26:33.884Z,2
2022-11-17T13:27:33.883Z,1
2022-11-17T13:28:33.874Z,2
2022-11-17T13:29:33.881Z,1
2022-11-17T13:31:33.886Z,1
2022-11-17T13:32:33.877Z,1
2022-11-17T13:33:38.584Z,2
2022-11-17T13:34:33.884Z,1
2022-11-17T13:36:33.893Z,2
2022-11-17T13:37:33.885Z,1
2022-11-17T13:38:33.893Z,2
2022-11-17T13:39:33.891Z,1
2022-11-17T13:40:33.906Z,1
2022-11-17T13:45:48.809Z,2
2022-11-17T13:48:35.552Z,1
2022-11-17T13:50:28.735Z,1
2022-11-17T13:55:33.889Z,2
2022-11-17T13:56:33.894Z,1
2022-11-17T13:57:33.880Z,1
2022-11-17T13:58:33.882Z,2
2022-11-17T13:59:33.889Z,2
2022-11-17T14:00:33.880Z,1
2022-11-17T14:01:34.563Z,1
2022-11-17T14:02:33.882Z,2
2022-11-17T14:03:33.868Z,1
2022-11-17T14:04:33.881Z,2
2022-11-17T14:05:33.886Z,1
2022-11-17T14:06:33.890Z,1
2022-11-17T14:07:33.977Z,1
2022-11-17T14:08:33.882Z,2
2022-11-17T14:09:33.880Z,1
2022-11-17T14:10:33.894Z,1
2022-11-17T14:15:30.275Z,1
2022-11-17T14:16:44.388Z,1
2022-11-17T14:17:39.974Z,2
2022-11-17T14:20:33.891Z,1
2022-11-17T14:21:33.898Z,1
2022-11-17T14:22:33.891Z,1
2022-11-17T14:27:30.292Z,2
2022-11-17T14:28:25.884Z,2
2022-11-17T14:29:42.011Z,1
2022-11-17T14:30:33.891Z,1
2022-11-17T14:31:33.904Z,2
2022-11-17T14:32:33.924Z,1
2022-11-17T14:33:33.881Z,1
2022-11-17T14:34:33.882Z,1
2022-11-17T14:35:33.897Z,1
2022-11-17T14:36:33.895Z,2
2022-11-17T14:37:33.903Z,2
2022-11-17T14:38:33.889Z,1
2022-11-17T14:39:33.902Z,1
2022-11-17T14:40:33.895Z,1
2022-11-17T14:41:33.993Z,1
2022-11-17T14:42:36.137Z,1
2022-11-17T14:43:33.901Z,1
2022-11-17T14:44:33.899Z,1
2022-11-17T14:45:33.895Z,2
2022-11-17T14:46:33.914Z,2
2022-11-17T14:47:33.887Z,1
2022-11-17T14:48:33.887Z,1
2022-11-17T14:49:33.887Z,1
2022-11-17T14:50:33.894Z,2
2022-11-17T14:51:33.898Z,1
2022-11-17T14:52:33.896Z,1
2022-11-17T14:53:36.838Z,2
2022-11-17T14:54:33.905Z,1
2022-11-17T14:55:33.902Z,1
2022-11-17T14:56:33.899Z,1
2022-11-17T14:57:33.897Z,2
2022-11-17T14:58:33.907Z,1
2022-11-17T14:59:33.895Z,1
2022-11-17T15:00:33.891Z,2
2022-11-17T15:01:33.909Z,2
2022-11-17T15:02:33.918Z,2
2022-11-17T15:03:33.990Z,2
2022-11-17T15:04:50.832Z,2
2022-11-17T15:05:33.892Z,2
2022-11-17T15:06:33.894Z,2
2022-11-17T15:07:33.963Z,2
2022-11-17T15:08:33.907Z,2
2022-11-17T15:09:33.900Z,2
2022-11-17T15:10:33.885Z,3
2022-11-17T15:11:39.289Z,3
2022-11-17T15:12:33.922Z,3
2022-11-17T15:13:33.903Z,3
2022-11-17T15:14:33.914Z,2
2022-11-17T15:15:33.902Z,2
2022-11-17T15:16:33.901Z,2
2022-11-17T15:17:33.904Z,1
2022-11-17T15:18:33.898Z,2
2022-11-17T15:19:33.948Z,2
2022-11-17T15:20:33.896Z,2
2022-11-17T15:21:33.981Z,2
2022-11-17T15:22:33.893Z,2
2022-11-17T15:23:33.880Z,2
2022-11-17T15:24:33.928Z,2
2022-11-17T15:25:33.906Z,2
2022-11-17T15:26:33.901Z,2
2022-11-17T15:27:33.905Z,2
2022-11-17T15:28:33.901Z,2
2022-11-17T15:29:33.897Z,2
2022-11-17T15:30:33.913Z,2
2022-11-17T15:31:33.903Z,2
2022-11-17T15:32:33.896Z,2
2022-11-17T15:33:33.927Z,2
2022-11-17T15:34:34.013Z,1
2022-11-17T15:35:33.903Z,1
2022-11-17T15:36:33.913Z,2
2022-11-17T15:37:33.906Z,2
2022-11-17T15:38:33.897Z,2
2022-11-17T15:39:33.897Z,2
2022-11-17T15:40:33.906Z,2
2022-11-17T15:41:33.909Z,2
2022-11-17T15:42:33.903Z,2
2022-11-17T15:43:33.934Z,2
2022-11-17T15:44:33.899Z,2
2022-11-17T15:45:33.908Z,2
2022-11-17T15:46:33.911Z,2
2022-11-17T15:47:33.898Z,2
2022-11-17T15:48:33.901Z,2
2022-11-17T15:49:33.912Z,2
2022-11-17T15:50:33.904Z,2
2022-11-17T15:51:33.904Z,2
2022-11-17T15:53:02.057Z,2
2022-11-17T15:53:33.914Z,2
2022-11-17T15:54:33.903Z,2
2022-11-17T15:55:33.913Z,2
2022-11-17T15:56:33.911Z,2
2022-11-17T15:57:33.897Z,2
2022-11-17T15:58:33.904Z,2
2022-11-17T16:00:34.042Z,2
2022-11-17T16:01:33.913Z,2
2022-11-17T16:02:33.926Z,2
2022-11-17T16:04:33.913Z,2
2022-11-17T16:05:33.887Z,2
2022-11-17T16:06:33.923Z,2
2022-11-17T16:07:34.026Z,2
2022-11-17T16:08:33.891Z,2
2022-11-17T16:09:33.879Z,2
2022-11-17T16:12:33.893Z,2
2022-11-17T16:18:30.312Z,2
2022-11-17T16:19:44.411Z,2
2022-11-17T16:20:40.131Z,3
2022-11-17T16:22:33.895Z,2
2022-11-17T16:23:33.897Z,2
2022-11-17T16:24:33.932Z,2
2022-11-17T16:26:33.898Z,2
2022-11-17T16:27:33.891Z,2
2022-11-17T16:31:32.699Z,2
2022-11-17T16:33:42.370Z,2
2022-11-17T16:36:36.575Z,11
2022-11-17T16:37:33.920Z,12
2022-11-17T16:38:33.941Z,6
2022-11-17T16:39:33.923Z,7
2022-11-17T16:40:33.920Z,10
2022-11-17T16:41:33.928Z,9
2022-11-17T16:42:33.915Z,10
2022-11-17T16:44:33.981Z,12
2022-11-17T16:46:33.950Z,25
2022-11-17T16:51:30.325Z,17
2022-11-17T16:52:25.919Z,66
2022-11-17T16:54:33.924Z,21
2022-11-17T16:55:33.915Z,24
2022-11-17T16:56:33.924Z,8
2022-11-17T16:57:33.947Z,17
2022-11-17T16:58:33.948Z,7
2022-11-17T16:59:33.918Z,4
2022-11-17T17:00:33.928Z,4
2022-11-17T17:01:33.942Z,6
2022-11-17T17:03:33.928Z,8
2022-11-17T17:04:33.923Z,5
2022-11-17T17:05:33.917Z,3
2022-11-17T17:06:33.922Z,4
2022-11-17T17:07:34.010Z,4
2022-11-17T17:08:33.937Z,6
2022-11-17T17:09:33.919Z,4
2022-11-17T17:10:33.923Z,5
2022-11-17T17:11:33.930Z,4
2022-11-17T17:12:33.918Z,4
2022-11-17T17:13:33.934Z,3
2022-11-17T17:14:33.917Z,3
2022-11-17T17:15:33.946Z,4
2022-11-17T17:16:33.930Z,3
2022-11-17T17:17:33.922Z,4
2022-11-17T17:19:33.927Z,2
2022-11-17T17:20:33.930Z,2
2022-11-17T17:21:33.925Z,2
2022-11-17T17:22:33.926Z,3
2022-11-17T17:23:33.922Z,2
2022-11-17T17:24:33.923Z,2
2022-11-17T17:25:33.934Z,2
2022-11-17T17:27:33.942Z,2
2022-11-17T17:28:33.916Z,2
2022-11-17T17:29:33.919Z,2
2022-11-17T17:30:33.925Z,2
2022-11-17T17:31:33.936Z,2
2022-11-17T17:35:16.229Z,2
2022-11-17T17:36:30.331Z,2
2022-11-17T17:38:40.007Z,3
2022-11-17T17:39:56.218Z,3
2022-11-17T17:43:38.453Z,2
2022-11-17T17:44:54.607Z,2
2022-11-17T17:45:33.940Z,2
2022-11-17T17:46:33.989Z,3
2022-11-17T17:47:33.932Z,3
2022-11-17T17:48:33.925Z,3
2022-11-17T17:49:33.928Z,3
2022-11-17T17:52:31.001Z,4
2022-11-17T17:53:45.097Z,3
2022-11-17T17:55:36.223Z,4
2022-11-17T17:58:27.089Z,4
2022-11-17T18:01:13.778Z,3
2022-11-17T18:03:05.050Z,3
2022-11-17T18:04:56.096Z,3
2022-11-17T18:08:40.445Z,3
2022-11-17T18:09:54.597Z,3
2022-11-17T18:10:31.614Z,3
2022-11-17T18:11:45.828Z,4
2022-11-17T18:13:36.839Z,4
2022-11-17T18:20:28.507Z,4
2022-11-17T18:21:42.600Z,3
2022-11-17T18:23:33.743Z,3
2022-11-17T18:25:24.902Z,3
2022-11-17T18:26:39.007Z,4
2022-11-17T18:28:13.673Z,4
2022-11-17T18:30:33.949Z,3
2022-11-17T18:31:33.954Z,3
2022-11-17T18:32:33.979Z,4
2022-11-17T18:33:33.943Z,3
2022-11-17T18:34:33.954Z,3
2022-11-17T18:35:33.933Z,2
2022-11-17T18:37:33.970Z,2
2022-11-17T18:44:44.442Z,2
2022-11-17T18:46:37.625Z,2
2022-11-17T18:47:33.938Z,2
2022-11-17T18:48:33.936Z,3
2022-11-17T18:49:33.971Z,2
2022-11-17T18:51:33.939Z,3
2022-11-17T18:52:33.937Z,2
2022-11-17T18:53:33.938Z,3
2022-11-17T18:54:33.949Z,2
2022-11-17T18:55:33.965Z,2
2022-11-17T18:56:33.946Z,2
2022-11-17T18:57:33.947Z,2
2022-11-17T18:58:33.949Z,6
2022-11-17T18:59:33.956Z,2
2022-11-17T19:00:33.940Z,3
2022-11-17T19:01:34.041Z,5
2022-11-17T19:02:33.963Z,3
2022-11-17T19:03:33.979Z,2
2022-11-17T19:04:33.946Z,3
2022-11-17T19:05:33.952Z,2
2022-11-17T19:06:33.938Z,3
2022-11-17T19:07:34.071Z,5
2022-11-17T19:08:33.948Z,3
2022-11-17T19:09:33.938Z,3
2022-11-17T19:10:33.946Z,3
2022-11-17T19:11:33.936Z,4
2022-11-17T19:12:33.976Z,3
2022-11-17T19:13:33.947Z,3
2022-11-17T19:14:33.949Z,3
2022-11-17T19:15:33.947Z,3
2022-11-17T19:16:34.014Z,3
2022-11-17T19:17:33.967Z,2
2022-11-17T19:18:33.940Z,3
2022-11-17T19:19:33.948Z,3
2022-11-17T19:20:33.955Z,3
2022-11-17T19:21:33.943Z,3
2022-11-17T19:22:33.940Z,3
2022-11-17T19:23:33.970Z,3
2022-11-17T19:27:34.810Z,4
2022-11-17T19:28:30.374Z,4
2022-11-17T19:29:25.988Z,3
2022-11-17T19:30:42.101Z,3
2022-11-17T19:31:33.936Z,3
2022-11-17T19:32:33.939Z,2
2022-11-17T19:33:33.940Z,2
2022-11-17T19:34:33.983Z,3
2022-11-17T19:35:33.953Z,3
2022-11-17T19:40:30.358Z,2
2022-11-17T19:41:44.446Z,3
2022-11-17T19:44:33.949Z,2
2022-11-17T19:45:33.951Z,2
2022-11-17T19:48:33.975Z,3
2022-11-17T19:49:33.966Z,3
2022-11-17T19:52:04.200Z,3
2022-11-17T19:54:32.410Z,2
2022-11-17T19:58:35.298Z,2
2022-11-17T19:59:33.960Z,2
2022-11-17T20:00:33.976Z,2
2022-11-17T20:02:33.961Z,2
2022-11-17T20:03:34.000Z,2
2022-11-17T20:05:33.980Z,2
2022-11-17T20:06:33.970Z,2
2022-11-17T20:07:34.010Z,2